ESPA/LLA METAR and TAF weather

Enter ICAO airport designator
Station Type Date Time Source
ESPA METAR 2019/06/18 12:20 UTC NOAA

ESPA 181220Z 18013KT CAVOK 20/13 Q1005


Station Type Date Time Source
ESPA Decoded METAR 2019/06/18 12:20 UTC NOAA

Lulea / Kallax, Sweden (ESPA) 65-33N 022-08E 34M
Jun 18, 2019 - 08:20 AM EDT / 2019.06.18 1220 UTC
Wind: from the S (180 degrees) at 15 MPH (13 KT):0
Visibility: greater than 7 mile(s):0
Temperature: 68 F (20 C)
Dew Point: 55 F (13 C)
Relative Humidity: 64%
Pressure (altimeter): 29.68 in. Hg (1005 hPa)
ob: ESPA 181220Z 18013KT CAVOK 20/13 Q1005
cycle: 12

Station Type Date Time Source
ESPA TAF 2019/02/04 06:27 UTC NOAA

TAF TAF ESPA 040820Z 0406/0418 01010KT 2000 SN VV020
TEMPO 0409/0414 1000 +SN DRSN VV009
BECMG 0414/0416 32010KT 5000 -SN VV030
RMK MIL

Example: see airport list